KALI/ALI METAR and TAF weather

Enter ICAO airport designator
Station Type Date Time Source
KALI METAR 2020/01/28 20:53 UTC NOAA

KALI 282053Z AUTO 32014G22KT 10SM CLR 27/04 A2984 RMK AO2 SLP103 T02720044 55017


Station Type Date Time Source
KALI Decoded METAR 2020/01/28 20:53 UTC NOAA

ALICE INTERNATIONAL AIRPORT, TX, United States (KALI) 27-44N 098-01W 53M
Jan 28, 2020 - 03:53 PM EST / 2020.01.28 2053 UTC
Wind: from the NW (320 degrees) at 16 MPH (14 KT) gusting to 25 MPH (22 KT):0
Visibility: 10 mile(s):0
Sky conditions: clear
Temperature: 81.0 F (27.2 C)
Dew Point: 39.9 F (4.4 C)
Relative Humidity: 23%
Pressure (altimeter): 29.84 in. Hg (1010 hPa)
Pressure tendency: 0.05 inches (1.7 hPa) lower than three hours ago
ob: KALI 282053Z AUTO 32014G22KT 10SM CLR 27/04 A2984 RMK AO2 SLP103 T02720044 55017
cycle: 21

Station Type Date Time Source
KALI TAF 2020/01/28 18:36 UTC NOAA

TAF KALI 281733Z 2818/2918 25004KT P6SM SCT250
FM281930 30020G28KT P6SM SKC
FM290300 32010G18KT P6SM SKC
FM290600 32006KT P6SM SKC
FM291500 34012KT P6SM SCT025

Example: see airport list